sensor_id;sensor_type;location;lat;lon;timestamp;pressure;altitude;pressure_sealevel;temperature;humidity
50550;BME280;36505;52.512;13.460;2022-10-04T00:02:02;101602.34;;;12.80;86.63
50550;BME280;36505;52.512;13.460;2022-10-04T00:04:55;101602.22;;;12.75;86.68
50550;BME280;36505;52.512;13.460;2022-10-04T00:07:27;101578.56;;;12.62;86.73
50550;BME280;36505;52.512;13.460;2022-10-04T00:10:12;101601.97;;;12.76;86.30
50550;BME280;36505;52.512;13.460;2022-10-04T00:12:51;101606.28;;;12.72;86.53
50550;BME280;36505;52.512;13.460;2022-10-04T00:15:34;101596.13;;;12.73;86.14
50550;BME280;36505;52.512;13.460;2022-10-04T00:25:53;101595.63;;;12.64;86.29
50550;BME280;36505;52.512;13.460;2022-10-04T00:30:44;101586.81;;;12.62;86.31
50550;BME280;36505;52.512;13.460;2022-10-04T00:33:10;101593.72;;;12.64;85.91
50550;BME280;36505;52.512;13.460;2022-10-04T00:38:12;101598.38;;;12.64;86.60
50550;BME280;36505;52.512;13.460;2022-10-04T00:41:02;101593.00;;;12.57;86.51
50550;BME280;36505;52.512;13.460;2022-10-04T00:43:56;101605.44;;;12.60;86.32
50550;BME280;36505;52.512;13.460;2022-10-04T00:46:23;101603.13;;;12.57;86.43
50550;BME280;36505;52.512;13.460;2022-10-04T00:48:55;101598.13;;;12.54;86.29
50550;BME280;36505;52.512;13.460;2022-10-04T00:51:33;101587.47;;;12.46;86.43
50550;BME280;36505;52.512;13.460;2022-10-04T00:54:21;101600.66;;;12.55;85.86
50550;BME280;36505;52.512;13.460;2022-10-04T01:02:01;101590.59;;;12.49;85.99
50550;BME280;36505;52.512;13.460;2022-10-04T01:07:04;101577.78;;;12.43;85.37
50550;BME280;36505;52.512;13.460;2022-10-04T01:09:40;101582.09;;;12.51;85.51
50550;BME280;36505;52.512;13.460;2022-10-04T01:12:15;101581.88;;;12.52;85.10
50550;BME280;36505;52.512;13.460;2022-10-04T01:21:06;101581.88;;;12.64;84.59
50550;BME280;36505;52.512;13.460;2022-10-04T01:23:42;101591.19;;;12.63;84.40
50550;BME280;36505;52.512;13.460;2022-10-04T01:29:01;101571.00;;;12.46;83.95
50550;BME280;36505;52.512;13.460;2022-10-04T01:31:28;101577.34;;;12.46;84.25
50550;BME280;36505;52.512;13.460;2022-10-04T01:33:54;101584.97;;;12.44;84.71
50550;BME280;36505;52.512;13.460;2022-10-04T01:36:20;101585.06;;;12.38;84.76
50550;BME280;36505;52.512;13.460;2022-10-04T01:38:46;101567.13;;;12.23;85.02
50550;BME280;36505;52.512;13.460;2022-10-04T01:41:17;101583.88;;;12.34;84.64
50550;BME280;36505;52.512;13.460;2022-10-04T01:43:48;101570.84;;;12.29;85.05
50550;BME280;36505;52.512;13.460;2022-10-04T01:46:28;101572.28;;;12.32;84.83
50550;BME280;36505;52.512;13.460;2022-10-04T01:48:56;101576.50;;;12.34;84.50
50550;BME280;36505;52.512;13.460;2022-10-04T01:51:41;101584.13;;;12.44;84.32
50550;BME280;36505;52.512;13.460;2022-10-04T01:54:13;101575.16;;;12.37;84.25
50550;BME280;36505;52.512;13.460;2022-10-04T01:56:43;101588.94;;;12.48;84.18
50550;BME280;36505;52.512;13.460;2022-10-04T01:59:17;101583.44;;;12.48;84.35
50550;BME280;36505;52.512;13.460;2022-10-04T02:04:27;101580.31;;;12.45;84.34
50550;BME280;36505;52.512;13.460;2022-10-04T02:06:56;101520.31;;;12.07;84.38
50550;BME280;36505;52.512;13.460;2022-10-04T02:09:43;101566.81;;;12.32;84.63
50550;BME280;36505;52.512;13.460;2022-10-04T02:12:15;101570.63;;;12.31;84.64
50550;BME280;36505;52.512;13.460;2022-10-04T02:14:46;101566.44;;;12.28;84.63
50550;BME280;36505;52.512;13.460;2022-10-04T02:17:20;101548.97;;;12.11;84.49
50550;BME280;36505;52.512;13.460;2022-10-04T02:19:47;101545.25;;;12.05;84.72
50550;BME280;36505;52.512;13.460;2022-10-04T02:22:14;101568.91;;;12.18;84.53
50550;BME280;36505;52.512;13.460;2022-10-04T02:24:41;101557.81;;;12.13;84.29
50550;BME280;36505;52.512;13.460;2022-10-04T02:27:08;101567.00;;;12.18;84.35
50550;BME280;36505;52.512;13.460;2022-10-04T02:29:33;101535.91;;;11.95;84.54
50550;BME280;36505;52.512;13.460;2022-10-04T02:31:59;101571.63;;;12.06;84.70
50550;BME280;36505;52.512;13.460;2022-10-04T02:34:45;101569.00;;;12.00;84.58
50550;BME280;36505;52.512;13.460;2022-10-04T02:37:11;101558.34;;;11.92;84.59
50550;BME280;36505;52.512;13.460;2022-10-04T02:39:53;101568.47;;;11.91;84.65
50550;BME280;36505;52.512;13.460;2022-10-04T02:45:40;101562.25;;;11.84;84.50
50550;BME280;36505;52.512;13.460;2022-10-04T02:48:21;101564.03;;;11.78;84.29
50550;BME280;36505;52.512;13.460;2022-10-04T02:50:52;101562.41;;;11.71;84.77
50550;BME280;36505;52.512;13.460;2022-10-04T02:53:35;101564.31;;;11.70;84.79
50550;BME280;36505;52.512;13.460;2022-10-04T02:56:08;101564.91;;;11.72;84.87
50550;BME280;36505;52.512;13.460;2022-10-04T02:58:36;101536.22;;;11.57;84.29
50550;BME280;36505;52.512;13.460;2022-10-04T03:01:02;101562.34;;;11.77;84.34
50550;BME280;36505;52.512;13.460;2022-10-04T03:03:33;101545.81;;;11.66;84.17
50550;BME280;36505;52.512;13.460;2022-10-04T03:06:10;101558.53;;;11.78;84.04
50550;BME280;36505;52.512;13.460;2022-10-04T03:08:52;101568.66;;;11.78;83.67
50550;BME280;36505;52.512;13.460;2022-10-04T03:11:21;101562.41;;;11.71;83.81
50550;BME280;36505;52.512;13.460;2022-10-04T03:13:51;101540.03;;;11.56;83.69
50550;BME280;36505;52.512;13.460;2022-10-04T03:16:18;101526.03;;;11.45;83.75
50550;BME280;36505;52.512;13.460;2022-10-04T03:18:45;101533.66;;;11.43;84.29
50550;BME280;36505;52.512;13.460;2022-10-04T03:21:12;101566.84;;;11.54;84.92
50550;BME280;36505;52.512;13.460;2022-10-04T03:23:40;101578.81;;;11.59;84.88
50550;BME280;36505;52.512;13.460;2022-10-04T03:28:49;101570.97;;;11.44;85.17
50550;BME280;36505;52.512;13.460;2022-10-04T03:31:15;101577.00;;;11.53;85.73
50550;BME280;36505;52.512;13.460;2022-10-04T03:33:45;101574.94;;;11.48;85.67
50550;BME280;36505;52.512;13.460;2022-10-04T03:36:13;101577.00;;;11.53;85.97
50550;BME280;36505;52.512;13.460;2022-10-04T03:38:41;101576.00;;;11.47;86.67
50550;BME280;36505;52.512;13.460;2022-10-04T03:41:09;101569.44;;;11.48;86.93
50550;BME280;36505;52.512;13.460;2022-10-04T03:43:40;101568.25;;;11.44;86.89
50550;BME280;36505;52.512;13.460;2022-10-04T03:46:08;101576.16;;;11.53;87.07
50550;BME280;36505;52.512;13.460;2022-10-04T03:48:37;101566.47;;;11.50;87.28
50550;BME280;36505;52.512;13.460;2022-10-04T03:51:05;101567.19;;;11.45;87.27
50550;BME280;36505;52.512;13.460;2022-10-04T03:53:35;101582.22;;;11.55;87.07
50550;BME280;36505;52.512;13.460;2022-10-04T03:56:27;101577.00;;;11.53;87.56
50550;BME280;36505;52.512;13.460;2022-10-04T03:58:54;101559.53;;;11.47;87.37
50550;BME280;36505;52.512;13.460;2022-10-04T04:01:29;101579.03;;;11.58;87.57
50550;BME280;36505;52.512;13.460;2022-10-04T04:04:02;101590.84;;;11.58;87.74
50550;BME280;36505;52.512;13.460;2022-10-04T04:06:46;101570.91;;;11.51;87.89
50550;BME280;36505;52.512;13.460;2022-10-04T04:09:24;101579.88;;;11.58;87.78
50550;BME280;36505;52.512;13.460;2022-10-04T04:11:53;101582.22;;;11.55;88.11
50550;BME280;36505;52.512;13.460;2022-10-04T04:14:24;101580.94;;;11.57;87.65
50550;BME280;36505;52.512;13.460;2022-10-04T04:16:54;101562.53;;;11.46;87.70
50550;BME280;36505;52.512;13.460;2022-10-04T04:19:40;101580.25;;;11.62;87.38
50550;BME280;36505;52.512;13.460;2022-10-04T04:22:13;101594.34;;;11.65;87.32
50550;BME280;36505;52.512;13.460;2022-10-04T04:24:40;101581.47;;;11.66;86.87
50550;BME280;36505;52.512;13.460;2022-10-04T04:27:08;101594.34;;;11.65;86.65
50550;BME280;36505;52.512;13.460;2022-10-04T04:30:01;101588.94;;;11.59;86.84
50550;BME280;36505;52.512;13.460;2022-10-04T04:32:34;101578.91;;;11.53;86.79
50550;BME280;36505;52.512;13.460;2022-10-04T04:35:04;101590.53;;;11.48;86.88
50550;BME280;36505;52.512;13.460;2022-10-04T04:37:33;101571.28;;;11.36;86.77
50550;BME280;36505;52.512;13.460;2022-10-04T04:40:28;101577.84;;;11.35;86.72
50550;BME280;36505;52.512;13.460;2022-10-04T04:42:57;101584.16;;;11.36;86.80
50550;BME280;36505;52.512;13.460;2022-10-04T04:45:26;101569.78;;;11.22;86.79
50550;BME280;36505;52.512;13.460;2022-10-04T04:47:56;101594.97;;;11.31;86.85
50550;BME280;36505;52.512;13.460;2022-10-04T04:55:37;101572.88;;;11.07;87.57
50550;BME280;36505;52.512;13.460;2022-10-04T04:58:03;101575.00;;;11.05;87.82
50550;BME280;36505;52.512;13.460;2022-10-04T05:00:35;101570.69;;;10.98;88.05
50550;BME280;36505;52.512;13.460;2022-10-04T05:03:05;101593.59;;;11.03;88.18
50550;BME280;36505;52.512;13.460;2022-10-04T05:05:33;101568.09;;;10.85;88.47
50550;BME280;36505;52.512;13.460;2022-10-04T05:10:38;101579.78;;;10.92;88.29
50550;BME280;36505;52.512;13.460;2022-10-04T05:13:07;101580.47;;;10.87;88.43
50550;BME280;36505;52.512;13.460;2022-10-04T05:15:36;101583.16;;;10.94;88.69
50550;BME280;36505;52.512;13.460;2022-10-04T05:18:13;101594.94;;;10.94;89.53
50550;BME280;36505;52.512;13.460;2022-10-04T05:20:47;101574.00;;;10.82;89.32
50550;BME280;36505;52.512;13.460;2022-10-04T05:23:13;101579.63;;;10.87;89.17
50550;BME280;36505;52.512;13.460;2022-10-04T05:25:39;101557.47;;;10.70;89.26
50550;BME280;36505;52.512;13.460;2022-10-04T05:28:04;101555.78;;;10.69;89.72
50550;BME280;36505;52.512;13.460;2022-10-04T05:33:49;101580.88;;;10.91;89.10
50550;BME280;36505;52.512;13.460;2022-10-04T05:36:36;101562.88;;;10.77;89.01
50550;BME280;36505;52.512;13.460;2022-10-04T05:39:25;101601.34;;;11.06;88.96
50550;BME280;36505;52.512;13.460;2022-10-04T05:42:00;101592.00;;;11.14;88.69
50550;BME280;36505;52.512;13.460;2022-10-04T05:44:29;101596.75;;;11.25;88.19
50550;BME280;36505;52.512;13.460;2022-10-04T05:46:58;101596.59;;;11.38;87.69
50550;BME280;36505;52.512;13.460;2022-10-04T05:49:25;101605.09;;;11.48;87.29
50550;BME280;36505;52.512;13.460;2022-10-04T05:52:02;101607.75;;;11.55;86.87
50550;BME280;36505;52.512;13.460;2022-10-04T05:54:34;101603.41;;;11.66;85.99
50550;BME280;36505;52.512;13.460;2022-10-04T05:57:18;101607.44;;;11.81;85.61
50550;BME280;36505;52.512;13.460;2022-10-04T06:02:40;101613.19;;;12.10;83.80
50550;BME280;36505;52.512;13.460;2022-10-04T06:06:04;101616.97;;;12.39;82.98
50550;BME280;36505;52.512;13.460;2022-10-04T06:08:26;101617.97;;;12.68;81.79
50550;BME280;36505;52.512;13.460;2022-10-04T06:11:04;101615.13;;;12.97;80.60
50550;BME280;36505;52.512;13.460;2022-10-04T06:22:25;101604.94;;;15.68;69.35
50550;BME280;36505;52.512;13.460;2022-10-04T06:24:57;101606.28;;;16.41;66.77
50550;BME280;36505;52.512;13.460;2022-10-04T06:27:38;101609.31;;;17.09;64.47
50550;BME280;36505;52.512;13.460;2022-10-04T06:30:17;101605.22;;;17.63;62.38
50550;BME280;36505;52.512;13.460;2022-10-04T06:35:43;101621.53;;;18.93;57.71
50550;BME280;36505;52.512;13.460;2022-10-04T06:41:27;101626.50;;;18.35;57.83
50550;BME280;36505;52.512;13.460;2022-10-04T06:44:18;101629.28;;;18.40;58.69
50550;BME280;36505;52.512;13.460;2022-10-04T06:46:51;101628.66;;;18.08;58.02
50550;BME280;36505;52.512;13.460;2022-10-04T06:54:52;101650.06;;;17.18;60.42
50550;BME280;36505;52.512;13.460;2022-10-04T07:00:15;101649.16;;;16.17;63.38
50550;BME280;36505;52.512;13.460;2022-10-04T07:02:50;101649.72;;;15.97;64.23
50550;BME280;36505;52.512;13.460;2022-10-04T07:05:31;101650.66;;;15.81;64.88
50550;BME280;36505;52.512;13.460;2022-10-04T07:08:11;101637.44;;;15.61;65.23
50550;BME280;36505;52.512;13.460;2022-10-04T07:10:56;101651.97;;;15.57;65.89
50550;BME280;36505;52.512;13.460;2022-10-04T07:13:36;101650.34;;;15.39;66.79
50550;BME280;36505;52.512;13.460;2022-10-04T07:16:26;101651.53;;;15.26;67.36
50550;BME280;36505;52.512;13.460;2022-10-04T07:21:18;101649.72;;;14.98;68.46
50550;BME280;36505;52.512;13.460;2022-10-04T07:23:49;101660.75;;;14.98;68.67
50550;BME280;36505;52.512;13.460;2022-10-04T07:28:49;101653.41;;;14.87;69.67
50550;BME280;36505;52.512;13.460;2022-10-04T07:31:34;101642.97;;;14.73;69.72
50550;BME280;36505;52.512;13.460;2022-10-04T07:34:41;101667.63;;;14.79;69.73
50550;BME280;36505;52.512;13.460;2022-10-04T07:37:10;101673.63;;;14.76;70.02
50550;BME280;36505;52.512;13.460;2022-10-04T07:42:32;101657.91;;;14.60;70.47
50550;BME280;36505;52.512;13.460;2022-10-04T07:47:35;101671.50;;;14.50;71.20
50550;BME280;36505;52.512;13.460;2022-10-04T07:50:23;101679.31;;;14.41;71.78
50550;BME280;36505;52.512;13.460;2022-10-04T07:53:00;101676.44;;;14.36;72.01
50550;BME280;36505;52.512;13.460;2022-10-04T07:55:39;101684.94;;;14.35;72.21
50550;BME280;36505;52.512;13.460;2022-10-04T08:03:46;101697.41;;;14.37;72.49
50550;BME280;36505;52.512;13.460;2022-10-04T08:12:06;101712.25;;;14.48;72.25
50550;BME280;36505;52.512;13.460;2022-10-04T08:17:36;101708.06;;;14.45;72.09
50550;BME280;36505;52.512;13.460;2022-10-04T08:23:30;101710.75;;;14.57;71.99
50550;BME280;36505;52.512;13.460;2022-10-04T08:29:36;101699.59;;;14.97;70.74
50550;BME280;36505;52.512;13.460;2022-10-04T08:32:24;101713.00;;;15.99;67.80
50550;BME280;36505;52.512;13.460;2022-10-04T08:40:39;101720.22;;;16.48;65.45
50550;BME280;36505;52.512;13.460;2022-10-04T08:49:02;101700.31;;;15.76;67.40
50550;BME280;36505;52.512;13.460;2022-10-04T08:57:23;101713.38;;;15.64;67.79
50550;BME280;36505;52.512;13.460;2022-10-04T09:17:14;101712.56;;;19.26;56.05
50550;BME280;36505;52.512;13.460;2022-10-04T09:22:45;101704.28;;;23.73;44.72
50550;BME280;36505;52.512;13.460;2022-10-04T09:30:44;101696.53;;;30.35;31.45
50550;BME280;36505;52.512;13.460;2022-10-04T09:34:27;101701.97;;;30.80;29.56
50550;BME280;36505;52.512;13.460;2022-10-04T09:44:52;101703.38;;;26.54;36.18
50550;BME280;36505;52.512;13.460;2022-10-04T10:06:22;101691.06;;;32.13;27.65
50550;BME280;36505;52.512;13.460;2022-10-04T10:11:57;101691.47;;;31.64;28.14
50550;BME280;36505;52.512;13.460;2022-10-04T10:23:05;101689.09;;;30.31;29.38
50550;BME280;36505;52.512;13.460;2022-10-04T10:28:45;101690.31;;;28.11;31.72
50550;BME280;36505;52.512;13.460;2022-10-04T10:34:20;101695.41;;;25.82;35.87
50550;BME280;36505;52.512;13.460;2022-10-04T10:39:51;101706.50;;;25.95;35.69
50550;BME280;36505;52.512;13.460;2022-10-04T10:48:47;101694.44;;;24.03;39.92
50550;BME280;36505;52.512;13.460;2022-10-04T11:00:01;101694.34;;;23.35;42.00
50550;BME280;36505;52.512;13.460;2022-10-04T11:11:42;101699.13;;;21.55;45.91
50550;BME280;36505;52.512;13.460;2022-10-04T11:23:11;101696.91;;;21.28;47.70
50550;BME280;36505;52.512;13.460;2022-10-04T11:38:02;101685.59;;;20.32;50.19
50550;BME280;36505;52.512;13.460;2022-10-04T11:49:40;101676.38;;;19.82;52.18
50550;BME280;36505;52.512;13.460;2022-10-04T11:57:47;101665.91;;;19.54;53.56
50550;BME280;36505;52.512;13.460;2022-10-04T12:00:19;101670.91;;;19.26;53.10
50550;BME280;36505;52.512;13.460;2022-10-04T12:11:17;101671.78;;;18.91;54.14
50550;BME280;36505;52.512;13.460;2022-10-04T12:14:12;101666.53;;;18.90;54.88
50550;BME280;36505;52.512;13.460;2022-10-04T12:22:37;101665.66;;;18.64;55.26
50550;BME280;36505;52.512;13.460;2022-10-04T12:33:33;101644.28;;;19.15;53.89
50550;BME280;36505;52.512;13.460;2022-10-04T12:41:50;101655.94;;;19.07;53.93
50550;BME280;36505;52.512;13.460;2022-10-04T12:44:40;101655.69;;;18.93;53.52
50550;BME280;36505;52.512;13.460;2022-10-04T12:48:00;101657.34;;;18.94;53.88
50550;BME280;36505;52.512;13.460;2022-10-04T12:52:52;101644.56;;;18.83;53.62
50550;BME280;36505;52.512;13.460;2022-10-04T12:55:45;101644.03;;;18.71;53.57
50550;BME280;36505;52.512;13.460;2022-10-04T13:01:35;101659.28;;;18.64;54.50
50550;BME280;36505;52.512;13.460;2022-10-04T13:11:51;101649.19;;;18.22;54.95
50550;BME280;36505;52.512;13.460;2022-10-04T13:14:53;101651.94;;;18.12;55.13
50550;BME280;36505;52.512;13.460;2022-10-04T13:17:47;101643.63;;;18.12;55.21
50550;BME280;36505;52.512;13.460;2022-10-04T13:25:37;101631.91;;;17.95;55.70
50550;BME280;36505;52.512;13.460;2022-10-04T13:33:29;101624.50;;;18.05;56.01
50550;BME280;36505;52.512;13.460;2022-10-04T13:36:21;101620.31;;;18.03;55.29
50550;BME280;36505;52.512;13.460;2022-10-04T13:39:15;101614.81;;;18.08;55.56
50550;BME280;36505;52.512;13.460;2022-10-04T13:44:47;101612.59;;;18.30;55.21
50550;BME280;36505;52.512;13.460;2022-10-04T13:50:38;101605.41;;;18.44;54.69
50550;BME280;36505;52.512;13.460;2022-10-04T13:53:23;101596.56;;;18.47;54.34
50550;BME280;36505;52.512;13.460;2022-10-04T14:22:34;101573.50;;;18.11;54.46
50550;BME280;36505;52.512;13.460;2022-10-04T14:36:42;101570.38;;;17.77;55.03
50550;BME280;36505;52.512;13.460;2022-10-04T15:01:12;101534.09;;;17.12;58.00
50550;BME280;36505;52.512;13.460;2022-10-04T15:04:04;101547.63;;;17.13;57.59
50550;BME280;36505;52.512;13.460;2022-10-04T15:06:51;101541.81;;;17.10;58.11
50550;BME280;36505;52.512;13.460;2022-10-04T15:09:51;101529.06;;;17.04;58.20
50550;BME280;36505;52.512;13.460;2022-10-04T15:17:26;101516.72;;;16.79;58.99
50550;BME280;36505;52.512;13.460;2022-10-04T15:22:55;101522.47;;;16.68;60.08
50550;BME280;36505;52.512;13.460;2022-10-04T15:25:42;101526.50;;;16.55;59.74
50550;BME280;36505;52.512;13.460;2022-10-04T15:34:10;101521.69;;;16.45;60.76
50550;BME280;36505;52.512;13.460;2022-10-04T15:59:17;101534.25;;;15.94;62.03
50550;BME280;36505;52.512;13.460;2022-10-04T16:05:23;101540.44;;;15.79;63.03
50550;BME280;36505;52.512;13.460;2022-10-04T16:19:05;101527.03;;;15.45;65.54
50550;BME280;36505;52.512;13.460;2022-10-04T16:21:41;101524.22;;;15.39;65.64
50550;BME280;36505;52.512;13.460;2022-10-04T16:32:19;101504.13;;;15.22;67.66
50550;BME280;36505;52.512;13.460;2022-10-04T16:34:55;101502.97;;;15.18;67.84
50550;BME280;36505;52.512;13.460;2022-10-04T16:37:25;101496.03;;;15.16;67.59
50550;BME280;36505;52.512;13.460;2022-10-04T16:45:41;101492.72;;;14.92;68.24
50550;BME280;36505;52.512;13.460;2022-10-04T16:56:28;101535.94;;;14.86;69.07
50550;BME280;36505;52.512;13.460;2022-10-04T17:07:24;101528.09;;;14.61;70.00
50550;BME280;36505;52.512;13.460;2022-10-04T17:12:53;101539.13;;;14.61;70.48
50550;BME280;36505;52.512;13.460;2022-10-04T17:15:32;101537.38;;;14.55;70.75
50550;BME280;36505;52.512;13.460;2022-10-04T17:23:16;101550.16;;;14.45;70.99
50550;BME280;36505;52.512;13.460;2022-10-04T17:26:10;101557.00;;;14.42;71.33
50550;BME280;36505;52.512;13.460;2022-10-04T17:34:24;101561.72;;;14.30;71.59
50550;BME280;36505;52.512;13.460;2022-10-04T17:45:49;101565.56;;;14.12;71.23
50550;BME280;36505;52.512;13.460;2022-10-04T17:48:21;101562.94;;;14.06;71.07
50550;BME280;36505;52.512;13.460;2022-10-04T17:54:09;101540.72;;;13.96;71.58
50550;BME280;36505;52.512;13.460;2022-10-04T17:59:38;101526.28;;;13.89;71.21
50550;BME280;36505;52.512;13.460;2022-10-04T18:02:10;101516.91;;;13.73;71.15
50550;BME280;36505;52.512;13.460;2022-10-04T18:04:59;101542.94;;;13.82;71.43
50550;BME280;36505;52.512;13.460;2022-10-04T18:07:48;101540.94;;;13.77;71.39
50550;BME280;36505;52.512;13.460;2022-10-04T18:10:34;101525.44;;;13.71;71.55
50550;BME280;36505;52.512;13.460;2022-10-04T18:13:19;101519.31;;;13.69;71.80
50550;BME280;36505;52.512;13.460;2022-10-04T18:15:52;101523.91;;;13.64;72.07
50550;BME280;36505;52.512;13.460;2022-10-04T18:18:26;101522.38;;;13.56;72.27
50550;BME280;36505;52.512;13.460;2022-10-04T18:23:29;101539.13;;;13.55;72.18
50550;BME280;36505;52.512;13.460;2022-10-04T18:25:58;101538.53;;;13.53;72.65
50550;BME280;36505;52.512;13.460;2022-10-04T18:28:24;101541.78;;;13.50;72.46
50550;BME280;36505;52.512;13.460;2022-10-04T18:30:56;101532.69;;;13.49;72.57
50550;BME280;36505;52.512;13.460;2022-10-04T18:36:18;101532.59;;;13.44;73.08
50550;BME280;36505;52.512;13.460;2022-10-04T18:38:59;101529.25;;;13.42;72.93
50550;BME280;36505;52.512;13.460;2022-10-04T18:41:25;101533.66;;;13.43;72.94
50550;BME280;36505;52.512;13.460;2022-10-04T18:44:16;101521.97;;;13.36;73.29
50550;BME280;36505;52.512;13.460;2022-10-04T18:46:45;101521.97;;;13.36;73.38
50550;BME280;36505;52.512;13.460;2022-10-04T18:49:19;101524.94;;;13.34;73.26
50550;BME280;36505;52.512;13.460;2022-10-04T18:57:37;101520.06;;;13.25;73.73
50550;BME280;36505;52.512;13.460;2022-10-04T19:00:23;101517.81;;;13.22;73.68
50550;BME280;36505;52.512;13.460;2022-10-04T19:03:16;101533.94;;;13.18;73.93
50550;BME280;36505;52.512;13.460;2022-10-04T19:17:13;101517.13;;;13.03;74.58
50550;BME280;36505;52.512;13.460;2022-10-04T19:22:20;101524.53;;;13.02;74.80
50550;BME280;36505;52.512;13.460;2022-10-04T19:25:22;101536.00;;;12.99;74.88
50550;BME280;36505;52.512;13.460;2022-10-04T19:27:56;101531.81;;;12.97;74.81
50550;BME280;36505;52.512;13.460;2022-10-04T19:30:29;101541.00;;;12.91;75.22
50550;BME280;36505;52.512;13.460;2022-10-04T19:38:57;101542.34;;;12.88;75.25
50550;BME280;36505;52.512;13.460;2022-10-04T19:41:50;101539.84;;;12.87;75.18
50550;BME280;36505;52.512;13.460;2022-10-04T19:49:48;101550.94;;;12.80;75.62
50550;BME280;36505;52.512;13.460;2022-10-04T19:52:35;101541.25;;;12.78;75.67
50550;BME280;36505;52.512;13.460;2022-10-04T19:55:22;101547.50;;;12.73;75.86
50550;BME280;36505;52.512;13.460;2022-10-04T20:00:38;101553.72;;;12.69;76.25
50550;BME280;36505;52.512;13.460;2022-10-04T20:03:09;101554.41;;;12.64;76.33
50550;BME280;36505;52.512;13.460;2022-10-04T20:05:45;101551.66;;;12.64;76.45
50550;BME280;36505;52.512;13.460;2022-10-04T20:08:16;101546.66;;;12.61;76.21
50550;BME280;36505;52.512;13.460;2022-10-04T20:11:18;101538.66;;;12.59;76.36
50550;BME280;36505;52.512;13.460;2022-10-04T20:13:44;101529.69;;;12.52;76.59
50550;BME280;36505;52.512;13.460;2022-10-04T20:16:10;101539.38;;;12.55;76.35
50550;BME280;36505;52.512;13.460;2022-10-04T20:21:08;101546.06;;;12.47;76.29
50550;BME280;36505;52.512;13.460;2022-10-04T20:31:01;101552.72;;;12.40;76.71
50550;BME280;36505;52.512;13.460;2022-10-04T20:38:56;101527.75;;;12.30;76.77
50550;BME280;36505;52.512;13.460;2022-10-04T20:46:24;101525.72;;;12.25;76.63
50550;BME280;36505;52.512;13.460;2022-10-04T20:48:50;101522.00;;;12.19;76.93
50550;BME280;36505;52.512;13.460;2022-10-04T20:51:18;101530.03;;;12.21;77.10
50550;BME280;36505;52.512;13.460;2022-10-04T20:53:47;101524.97;;;12.18;77.14
50550;BME280;36505;52.512;13.460;2022-10-04T20:56:30;101525.22;;;12.16;76.89
50550;BME280;36505;52.512;13.460;2022-10-04T20:58:58;101519.16;;;12.14;77.09
50550;BME280;36505;52.512;13.460;2022-10-04T21:01:24;101517.94;;;12.10;77.02
50550;BME280;36505;52.512;13.460;2022-10-04T21:04:16;101521.75;;;12.09;77.22
50550;BME280;36505;52.512;13.460;2022-10-04T21:06:53;101519.22;;;12.08;77.01
50550;BME280;36505;52.512;13.460;2022-10-04T21:09:19;101517.19;;;12.03;77.04
50550;BME280;36505;52.512;13.460;2022-10-04T21:11:46;101516.13;;;12.04;77.07
50550;BME280;36505;52.512;13.460;2022-10-04T21:14:24;101520.44;;;12.00;77.06
50550;BME280;36505;52.512;13.460;2022-10-04T21:16:52;101529.97;;;11.98;77.58
50550;BME280;36505;52.512;13.460;2022-10-04T21:22:07;101530.66;;;11.93;77.16
50550;BME280;36505;52.512;13.460;2022-10-04T21:27:01;101516.09;;;11.93;76.96
50550;BME280;36505;52.512;13.460;2022-10-04T21:29:27;101509.56;;;11.94;77.12
50550;BME280;36505;52.512;13.460;2022-10-04T21:31:54;101502.38;;;11.93;77.06
50550;BME280;36505;52.512;13.460;2022-10-04T21:34:20;101501.16;;;11.88;77.20
50550;BME280;36505;52.512;13.460;2022-10-04T21:36:45;101494.38;;;11.91;76.87
50550;BME280;36505;52.512;13.460;2022-10-04T21:39:10;101486.38;;;11.90;77.13
50550;BME280;36505;52.512;13.460;2022-10-04T21:41:36;101486.16;;;11.91;76.89
50550;BME280;36505;52.512;13.460;2022-10-04T21:44:01;101487.44;;;11.88;76.78
50550;BME280;36505;52.512;13.460;2022-10-04T21:46:26;101488.28;;;11.89;77.07
50550;BME280;36505;52.512;13.460;2022-10-04T21:48:52;101482.22;;;11.87;76.64
50550;BME280;36505;52.512;13.460;2022-10-04T21:51:17;101479.09;;;11.83;76.79
50550;BME280;36505;52.512;13.460;2022-10-04T21:53:42;101475.38;;;11.78;77.02
50550;BME280;36505;52.512;13.460;2022-10-04T21:56:07;101482.16;;;11.75;77.20
50550;BME280;36505;52.512;13.460;2022-10-04T21:58:33;101479.41;;;11.75;76.83
50550;BME280;36505;52.512;13.460;2022-10-04T22:00:58;101474.75;;;11.76;76.97
50550;BME280;36505;52.512;13.460;2022-10-04T22:03:23;101479.81;;;11.79;76.92
50550;BME280;36505;52.512;13.460;2022-10-04T22:05:49;101472.03;;;11.76;77.11
50550;BME280;36505;52.512;13.460;2022-10-04T22:08:14;101483.00;;;11.76;76.99
50550;BME280;36505;52.512;13.460;2022-10-04T22:10:39;101447.38;;;11.58;77.35
50550;BME280;36505;52.512;13.460;2022-10-04T22:13:05;101469.56;;;11.68;77.73
50550;BME280;36505;52.512;13.460;2022-10-04T22:15:30;101461.59;;;11.66;77.60
50550;BME280;36505;52.512;13.460;2022-10-04T22:17:56;101455.28;;;11.66;76.98
50550;BME280;36505;52.512;13.460;2022-10-04T22:20:22;101465.41;;;11.65;77.30
50550;BME280;36505;52.512;13.460;2022-10-04T22:22:48;101466.72;;;11.63;77.33
50550;BME280;36505;52.512;13.460;2022-10-04T22:25:16;101460.75;;;11.66;77.54
50550;BME280;36505;52.512;13.460;2022-10-04T22:27:42;101454.44;;;11.65;77.48
50550;BME280;36505;52.512;13.460;2022-10-04T22:30:21;101447.28;;;11.64;77.31